sim
Sign-in with your pilot id or email,
or register
Callsign
Passwort

Schedule Details

Flight Number: RYR3368
Departure: Shannon Airport (EINN) at 06:20
Arrival: Fuerteventura Airport (GCFV) at 10:30
Route: Ryanair Passenger Schedule. Enter filed route here before submitting Pirep.

Weather Information
Getting current METAR information for EINN 211600Z 16019KT 9999 SCT014 BKN016 12/09 Q1017 NOSIG
Getting current METAR information for GCFV 211600Z 06005KT 030V110 CAVOK 20/14 Q1020

Schedule Frequency

Route Map